sensor_id;sensor_type;location;lat;lon;timestamp;P1;durP1;ratioP1;P2;durP2;ratioP2
54384;SDS011;40284;52.878;5.998;2024-01-30T00:01:52;29.67;;;21.92;;
54384;SDS011;40284;52.878;5.998;2024-01-30T00:04:18;25.50;;;19.20;;
54384;SDS011;40284;52.878;5.998;2024-01-30T00:06:44;27.83;;;21.38;;
54384;SDS011;40284;52.878;5.998;2024-01-30T00:09:10;28.67;;;20.08;;
54384;SDS011;40284;52.878;5.998;2024-01-30T00:11:37;28.65;;;20.33;;
54384;SDS011;40284;52.878;5.998;2024-01-30T00:14:03;26.85;;;19.73;;
54384;SDS011;40284;52.878;5.998;2024-01-30T00:16:29;26.65;;;20.65;;
54384;SDS011;40284;52.878;5.998;2024-01-30T00:18:56;26.60;;;19.55;;
54384;SDS011;40284;52.878;5.998;2024-01-30T00:21:22;28.63;;;20.88;;
54384;SDS011;40284;52.878;5.998;2024-01-30T00:23:48;27.45;;;20.20;;
54384;SDS011;40284;52.878;5.998;2024-01-30T00:26:14;26.33;;;20.42;;
54384;SDS011;40284;52.878;5.998;2024-01-30T00:28:41;32.13;;;21.15;;
54384;SDS011;40284;52.878;5.998;2024-01-30T00:31:07;26.33;;;19.95;;
54384;SDS011;40284;52.878;5.998;2024-01-30T00:33:37;25.38;;;21.35;;
54384;SDS011;40284;52.878;5.998;2024-01-30T00:36:04;28.58;;;22.02;;
54384;SDS011;40284;52.878;5.998;2024-01-30T00:38:31;31.48;;;21.77;;
54384;SDS011;40284;52.878;5.998;2024-01-30T00:40:57;27.52;;;20.65;;
54384;SDS011;40284;52.878;5.998;2024-01-30T00:43:23;28.60;;;21.98;;
54384;SDS011;40284;52.878;5.998;2024-01-30T00:45:50;30.35;;;21.45;;
54384;SDS011;40284;52.878;5.998;2024-01-30T00:48:19;35.35;;;21.60;;
54384;SDS011;40284;52.878;5.998;2024-01-30T00:50:46;27.45;;;20.98;;
54384;SDS011;40284;52.878;5.998;2024-01-30T00:53:12;29.25;;;21.88;;
54384;SDS011;40284;52.878;5.998;2024-01-30T00:55:38;30.20;;;22.52;;
54384;SDS011;40284;52.878;5.998;2024-01-30T00:58:04;28.25;;;20.77;;
54384;SDS011;40284;52.878;5.998;2024-01-30T01:00:30;30.75;;;20.83;;
54384;SDS011;40284;52.878;5.998;2024-01-30T01:02:57;30.75;;;21.20;;
54384;SDS011;40284;52.878;5.998;2024-01-30T01:05:23;29.85;;;20.98;;
54384;SDS011;40284;52.878;5.998;2024-01-30T01:07:49;31.98;;;20.33;;
54384;SDS011;40284;52.878;5.998;2024-01-30T01:10:18;28.73;;;20.75;;
54384;SDS011;40284;52.878;5.998;2024-01-30T01:12:44;26.83;;;21.08;;
54384;SDS011;40284;52.878;5.998;2024-01-30T01:15:11;26.50;;;19.85;;
54384;SDS011;40284;52.878;5.998;2024-01-30T01:17:37;25.60;;;20.17;;
54384;SDS011;40284;52.878;5.998;2024-01-30T01:20:04;27.35;;;21.08;;
54384;SDS011;40284;52.878;5.998;2024-01-30T01:22:31;29.38;;;21.05;;
54384;SDS011;40284;52.878;5.998;2024-01-30T01:24:57;26.33;;;19.30;;
54384;SDS011;40284;52.878;5.998;2024-01-30T01:27:24;30.10;;;22.02;;
54384;SDS011;40284;52.878;5.998;2024-01-30T01:29:50;25.67;;;19.90;;
54384;SDS011;40284;52.878;5.998;2024-01-30T01:32:16;31.45;;;20.73;;
54384;SDS011;40284;52.878;5.998;2024-01-30T01:34:42;32.00;;;19.92;;
54384;SDS011;40284;52.878;5.998;2024-01-30T01:37:08;29.85;;;21.20;;
54384;SDS011;40284;52.878;5.998;2024-01-30T01:39:34;27.55;;;20.60;;
54384;SDS011;40284;52.878;5.998;2024-01-30T01:42:00;29.80;;;20.85;;
54384;SDS011;40284;52.878;5.998;2024-01-30T01:44:26;28.10;;;20.88;;
54384;SDS011;40284;52.878;5.998;2024-01-30T01:46:53;29.63;;;19.77;;
54384;SDS011;40284;52.878;5.998;2024-01-30T01:49:19;27.83;;;21.60;;
54384;SDS011;40284;52.878;5.998;2024-01-30T01:51:45;29.40;;;21.05;;
54384;SDS011;40284;52.878;5.998;2024-01-30T01:54:12;26.77;;;20.48;;
54384;SDS011;40284;52.878;5.998;2024-01-30T01:56:40;27.98;;;20.85;;
54384;SDS011;40284;52.878;5.998;2024-01-30T01:59:07;25.83;;;19.95;;
54384;SDS011;40284;52.878;5.998;2024-01-30T02:01:33;25.95;;;19.80;;
54384;SDS011;40284;52.878;5.998;2024-01-30T02:03:59;27.20;;;21.45;;
54384;SDS011;40284;52.878;5.998;2024-01-30T02:06:26;28.90;;;20.52;;
54384;SDS011;40284;52.878;5.998;2024-01-30T02:08:52;28.73;;;20.17;;
54384;SDS011;40284;52.878;5.998;2024-01-30T02:11:19;25.17;;;19.70;;
54384;SDS011;40284;52.878;5.998;2024-01-30T02:13:46;26.90;;;20.40;;
54384;SDS011;40284;52.878;5.998;2024-01-30T02:16:12;26.25;;;20.05;;
54384;SDS011;40284;52.878;5.998;2024-01-30T02:18:38;29.52;;;21.13;;
54384;SDS011;40284;52.878;5.998;2024-01-30T02:21:08;25.58;;;20.05;;
54384;SDS011;40284;52.878;5.998;2024-01-30T02:23:34;32.47;;;21.67;;
54384;SDS011;40284;52.878;5.998;2024-01-30T02:26:00;29.67;;;19.83;;
54384;SDS011;40284;52.878;5.998;2024-01-30T02:28:26;29.38;;;19.75;;
54384;SDS011;40284;52.878;5.998;2024-01-30T02:30:52;27.48;;;20.63;;
54384;SDS011;40284;52.878;5.998;2024-01-30T02:33:19;28.23;;;20.65;;
54384;SDS011;40284;52.878;5.998;2024-01-30T02:35:47;27.30;;;20.50;;
54384;SDS011;40284;52.878;5.998;2024-01-30T02:38:13;31.35;;;21.73;;
54384;SDS011;40284;52.878;5.998;2024-01-30T02:40:39;25.95;;;19.27;;
54384;SDS011;40284;52.878;5.998;2024-01-30T02:43:05;30.00;;;20.27;;
54384;SDS011;40284;52.878;5.998;2024-01-30T02:45:31;29.85;;;20.77;;
54384;SDS011;40284;52.878;5.998;2024-01-30T02:47:57;26.98;;;19.52;;
54384;SDS011;40284;52.878;5.998;2024-01-30T02:50:23;33.47;;;22.02;;
54384;SDS011;40284;52.878;5.998;2024-01-30T02:52:49;25.92;;;19.00;;
54384;SDS011;40284;52.878;5.998;2024-01-30T02:55:15;28.63;;;21.50;;
54384;SDS011;40284;52.878;5.998;2024-01-30T02:57:43;25.20;;;19.27;;
54384;SDS011;40284;52.878;5.998;2024-01-30T03:00:09;28.45;;;21.02;;
54384;SDS011;40284;52.878;5.998;2024-01-30T03:02:36;32.00;;;20.83;;
54384;SDS011;40284;52.878;5.998;2024-01-30T03:05:02;26.60;;;21.38;;
54384;SDS011;40284;52.878;5.998;2024-01-30T03:07:29;26.95;;;20.02;;
54384;SDS011;40284;52.878;5.998;2024-01-30T03:09:55;26.52;;;19.70;;
54384;SDS011;40284;52.878;5.998;2024-01-30T03:12:21;26.75;;;20.63;;
54384;SDS011;40284;52.878;5.998;2024-01-30T03:14:47;30.75;;;21.60;;
54384;SDS011;40284;52.878;5.998;2024-01-30T03:17:14;24.13;;;19.00;;
54384;SDS011;40284;52.878;5.998;2024-01-30T03:19:40;25.08;;;18.80;;
54384;SDS011;40284;52.878;5.998;2024-01-30T03:22:07;28.35;;;20.65;;
54384;SDS011;40284;52.878;5.998;2024-01-30T03:24:33;26.67;;;19.95;;
54384;SDS011;40284;52.878;5.998;2024-01-30T03:26:59;24.63;;;19.17;;
54384;SDS011;40284;52.878;5.998;2024-01-30T03:29:25;26.40;;;19.85;;
54384;SDS011;40284;52.878;5.998;2024-01-30T03:31:51;27.27;;;19.17;;
54384;SDS011;40284;52.878;5.998;2024-01-30T03:34:17;26.17;;;19.17;;
54384;SDS011;40284;52.878;5.998;2024-01-30T03:36:43;28.48;;;21.10;;
54384;SDS011;40284;52.878;5.998;2024-01-30T03:39:09;25.13;;;19.40;;
54384;SDS011;40284;52.878;5.998;2024-01-30T03:41:35;26.17;;;18.42;;
54384;SDS011;40284;52.878;5.998;2024-01-30T03:44:02;25.45;;;18.30;;
54384;SDS011;40284;52.878;5.998;2024-01-30T03:46:28;24.10;;;18.42;;
54384;SDS011;40284;52.878;5.998;2024-01-30T03:48:54;24.95;;;17.45;;
54384;SDS011;40284;52.878;5.998;2024-01-30T03:51:20;23.13;;;18.52;;
54384;SDS011;40284;52.878;5.998;2024-01-30T03:53:46;24.95;;;17.77;;
54384;SDS011;40284;52.878;5.998;2024-01-30T03:56:12;24.08;;;18.27;;
54384;SDS011;40284;52.878;5.998;2024-01-30T03:58:39;22.75;;;17.85;;
54384;SDS011;40284;52.878;5.998;2024-01-30T04:01:05;28.33;;;17.90;;
54384;SDS011;40284;52.878;5.998;2024-01-30T04:03:31;21.15;;;16.27;;
54384;SDS011;40284;52.878;5.998;2024-01-30T04:05:57;24.23;;;17.38;;
54384;SDS011;40284;52.878;5.998;2024-01-30T04:08:23;26.63;;;17.00;;
54384;SDS011;40284;52.878;5.998;2024-01-30T04:10:49;24.52;;;18.08;;
54384;SDS011;40284;52.878;5.998;2024-01-30T04:13:15;23.00;;;17.40;;
54384;SDS011;40284;52.878;5.998;2024-01-30T04:15:41;25.33;;;16.77;;
54384;SDS011;40284;52.878;5.998;2024-01-30T04:18:07;22.13;;;17.95;;
54384;SDS011;40284;52.878;5.998;2024-01-30T04:20:33;25.35;;;17.42;;
54384;SDS011;40284;52.878;5.998;2024-01-30T04:22:59;23.48;;;17.20;;
54384;SDS011;40284;52.878;5.998;2024-01-30T04:25:25;21.90;;;16.92;;
54384;SDS011;40284;52.878;5.998;2024-01-30T04:27:51;26.35;;;18.50;;
54384;SDS011;40284;52.878;5.998;2024-01-30T04:30:17;24.17;;;16.95;;
54384;SDS011;40284;52.878;5.998;2024-01-30T04:32:44;25.33;;;17.15;;
54384;SDS011;40284;52.878;5.998;2024-01-30T04:35:10;20.35;;;16.20;;
54384;SDS011;40284;52.878;5.998;2024-01-30T04:37:36;25.00;;;17.35;;
54384;SDS011;40284;52.878;5.998;2024-01-30T04:40:02;27.40;;;16.85;;
54384;SDS011;40284;52.878;5.998;2024-01-30T04:42:28;23.02;;;16.52;;
54384;SDS011;40284;52.878;5.998;2024-01-30T04:44:54;22.70;;;16.50;;
54384;SDS011;40284;52.878;5.998;2024-01-30T04:47:20;19.95;;;16.63;;
54384;SDS011;40284;52.878;5.998;2024-01-30T04:49:46;25.95;;;17.95;;
54384;SDS011;40284;52.878;5.998;2024-01-30T04:52:12;21.83;;;16.25;;
54384;SDS011;40284;52.878;5.998;2024-01-30T04:54:38;22.27;;;15.88;;
54384;SDS011;40284;52.878;5.998;2024-01-30T04:57:04;21.25;;;16.42;;
54384;SDS011;40284;52.878;5.998;2024-01-30T04:59:34;23.55;;;16.27;;
54384;SDS011;40284;52.878;5.998;2024-01-30T05:02:01;23.05;;;15.88;;
54384;SDS011;40284;52.878;5.998;2024-01-30T05:04:27;22.80;;;16.55;;
54384;SDS011;40284;52.878;5.998;2024-01-30T05:06:53;21.48;;;16.08;;
54384;SDS011;40284;52.878;5.998;2024-01-30T05:09:19;21.95;;;15.73;;
54384;SDS011;40284;52.878;5.998;2024-01-30T05:11:46;22.52;;;17.25;;
54384;SDS011;40284;52.878;5.998;2024-01-30T05:14:12;24.25;;;17.67;;
54384;SDS011;40284;52.878;5.998;2024-01-30T05:16:40;21.63;;;16.85;;
54384;SDS011;40284;52.878;5.998;2024-01-30T05:19:08;21.15;;;15.60;;
54384;SDS011;40284;52.878;5.998;2024-01-30T05:21:34;22.80;;;16.13;;
54384;SDS011;40284;52.878;5.998;2024-01-30T05:24:00;21.70;;;15.55;;
54384;SDS011;40284;52.878;5.998;2024-01-30T05:26:26;20.27;;;15.68;;
54384;SDS011;40284;52.878;5.998;2024-01-30T05:28:52;21.23;;;15.98;;
54384;SDS011;40284;52.878;5.998;2024-01-30T05:31:18;22.33;;;16.58;;
54384;SDS011;40284;52.878;5.998;2024-01-30T05:33:45;23.05;;;16.17;;
54384;SDS011;40284;52.878;5.998;2024-01-30T05:36:14;27.38;;;17.05;;
54384;SDS011;40284;52.878;5.998;2024-01-30T05:38:40;21.08;;;16.35;;
54384;SDS011;40284;52.878;5.998;2024-01-30T05:41:06;27.40;;;16.05;;
54384;SDS011;40284;52.878;5.998;2024-01-30T05:43:32;24.38;;;16.70;;
54384;SDS011;40284;52.878;5.998;2024-01-30T05:45:58;19.75;;;15.68;;
54384;SDS011;40284;52.878;5.998;2024-01-30T05:48:24;22.60;;;15.55;;
54384;SDS011;40284;52.878;5.998;2024-01-30T05:50:50;28.77;;;16.45;;
54384;SDS011;40284;52.878;5.998;2024-01-30T05:53:16;24.98;;;15.50;;
54384;SDS011;40284;52.878;5.998;2024-01-30T05:55:42;18.10;;;14.82;;
54384;SDS011;40284;52.878;5.998;2024-01-30T05:58:08;26.15;;;16.30;;
54384;SDS011;40284;52.878;5.998;2024-01-30T06:00:34;20.50;;;15.32;;
54384;SDS011;40284;52.878;5.998;2024-01-30T06:03:00;20.50;;;14.43;;
54384;SDS011;40284;52.878;5.998;2024-01-30T06:05:26;22.05;;;15.35;;
54384;SDS011;40284;52.878;5.998;2024-01-30T06:07:52;21.05;;;15.98;;
54384;SDS011;40284;52.878;5.998;2024-01-30T06:10:18;22.83;;;15.15;;
54384;SDS011;40284;52.878;5.998;2024-01-30T06:12:44;21.15;;;15.23;;
54384;SDS011;40284;52.878;5.998;2024-01-30T06:15:10;25.35;;;15.50;;
54384;SDS011;40284;52.878;5.998;2024-01-30T06:17:37;20.73;;;13.98;;
54384;SDS011;40284;52.878;5.998;2024-01-30T06:20:04;19.10;;;14.70;;
54384;SDS011;40284;52.878;5.998;2024-01-30T06:22:30;21.15;;;15.27;;
54384;SDS011;40284;52.878;5.998;2024-01-30T06:24:56;20.77;;;14.70;;
54384;SDS011;40284;52.878;5.998;2024-01-30T06:27:22;21.13;;;14.82;;
54384;SDS011;40284;52.878;5.998;2024-01-30T06:29:48;20.45;;;14.07;;
54384;SDS011;40284;52.878;5.998;2024-01-30T06:32:14;18.98;;;14.18;;
54384;SDS011;40284;52.878;5.998;2024-01-30T06:34:41;18.90;;;15.18;;
54384;SDS011;40284;52.878;5.998;2024-01-30T06:37:09;17.77;;;14.65;;
54384;SDS011;40284;52.878;5.998;2024-01-30T06:39:35;20.75;;;14.50;;
54384;SDS011;40284;52.878;5.998;2024-01-30T06:42:01;21.92;;;15.13;;
54384;SDS011;40284;52.878;5.998;2024-01-30T06:44:27;19.63;;;13.15;;
54384;SDS011;40284;52.878;5.998;2024-01-30T06:46:53;17.73;;;13.80;;
54384;SDS011;40284;52.878;5.998;2024-01-30T06:49:19;18.60;;;14.57;;
54384;SDS011;40284;52.878;5.998;2024-01-30T06:51:47;18.77;;;14.38;;
54384;SDS011;40284;52.878;5.998;2024-01-30T06:54:13;17.33;;;14.63;;
54384;SDS011;40284;52.878;5.998;2024-01-30T06:56:39;21.80;;;13.23;;
54384;SDS011;40284;52.878;5.998;2024-01-30T06:59:05;19.67;;;13.57;;
54384;SDS011;40284;52.878;5.998;2024-01-30T07:01:31;17.90;;;13.95;;
54384;SDS011;40284;52.878;5.998;2024-01-30T07:03:57;17.27;;;13.20;;
54384;SDS011;40284;52.878;5.998;2024-01-30T07:06:23;20.35;;;14.25;;
54384;SDS011;40284;52.878;5.998;2024-01-30T07:08:50;18.70;;;13.35;;
54384;SDS011;40284;52.878;5.998;2024-01-30T07:11:19;19.13;;;13.25;;
54384;SDS011;40284;52.878;5.998;2024-01-30T07:13:50;18.08;;;13.52;;
54384;SDS011;40284;52.878;5.998;2024-01-30T07:16:16;17.88;;;12.70;;
54384;SDS011;40284;52.878;5.998;2024-01-30T07:18:43;19.30;;;13.15;;
54384;SDS011;40284;52.878;5.998;2024-01-30T07:21:09;18.08;;;12.38;;
54384;SDS011;40284;52.878;5.998;2024-01-30T07:23:35;18.30;;;13.32;;
54384;SDS011;40284;52.878;5.998;2024-01-30T07:26:04;16.63;;;12.23;;
54384;SDS011;40284;52.878;5.998;2024-01-30T07:28:31;19.58;;;13.02;;
54384;SDS011;40284;52.878;5.998;2024-01-30T07:30:58;17.58;;;13.00;;
54384;SDS011;40284;52.878;5.998;2024-01-30T07:33:24;18.63;;;13.48;;
54384;SDS011;40284;52.878;5.998;2024-01-30T07:35:52;18.70;;;13.50;;
54384;SDS011;40284;52.878;5.998;2024-01-30T07:38:18;18.88;;;14.07;;
54384;SDS011;40284;52.878;5.998;2024-01-30T07:40:44;18.38;;;12.55;;
54384;SDS011;40284;52.878;5.998;2024-01-30T07:43:10;17.65;;;12.60;;
54384;SDS011;40284;52.878;5.998;2024-01-30T07:45:36;19.40;;;12.70;;
54384;SDS011;40284;52.878;5.998;2024-01-30T07:48:04;18.70;;;12.73;;
54384;SDS011;40284;52.878;5.998;2024-01-30T07:50:30;18.02;;;13.13;;
54384;SDS011;40284;52.878;5.998;2024-01-30T07:52:58;18.42;;;13.23;;
54384;SDS011;40284;52.878;5.998;2024-01-30T07:55:25;21.75;;;13.60;;
54384;SDS011;40284;52.878;5.998;2024-01-30T07:57:54;17.48;;;13.00;;
54384;SDS011;40284;52.878;5.998;2024-01-30T08:00:23;17.15;;;12.93;;
54384;SDS011;40284;52.878;5.998;2024-01-30T08:02:49;16.65;;;13.00;;
54384;SDS011;40284;52.878;5.998;2024-01-30T08:05:15;18.70;;;12.60;;
54384;SDS011;40284;52.878;5.998;2024-01-30T08:07:41;15.95;;;12.60;;
54384;SDS011;40284;52.878;5.998;2024-01-30T08:10:08;15.73;;;12.38;;
54384;SDS011;40284;52.878;5.998;2024-01-30T08:12:34;17.17;;;11.90;;
54384;SDS011;40284;52.878;5.998;2024-01-30T08:15:00;18.02;;;13.73;;
54384;SDS011;40284;52.878;5.998;2024-01-30T08:17:26;22.60;;;13.85;;
54384;SDS011;40284;52.878;5.998;2024-01-30T08:19:52;17.35;;;12.77;;
54384;SDS011;40284;52.878;5.998;2024-01-30T08:22:18;15.70;;;12.07;;
54384;SDS011;40284;52.878;5.998;2024-01-30T08:24:44;19.23;;;12.25;;
54384;SDS011;40284;52.878;5.998;2024-01-30T08:27:10;17.83;;;12.63;;
54384;SDS011;40284;52.878;5.998;2024-01-30T08:29:37;21.17;;;13.32;;
54384;SDS011;40284;52.878;5.998;2024-01-30T08:32:06;21.13;;;13.20;;
54384;SDS011;40284;52.878;5.998;2024-01-30T08:34:32;20.48;;;12.70;;
54384;SDS011;40284;52.878;5.998;2024-01-30T08:36:58;19.35;;;12.93;;
54384;SDS011;40284;52.878;5.998;2024-01-30T08:39:24;19.33;;;13.60;;
54384;SDS011;40284;52.878;5.998;2024-01-30T08:41:50;22.42;;;15.00;;
54384;SDS011;40284;52.878;5.998;2024-01-30T08:44:16;23.00;;;15.55;;
54384;SDS011;40284;52.878;5.998;2024-01-30T08:46:43;28.08;;;17.45;;
54384;SDS011;40284;52.878;5.998;2024-01-30T08:49:13;33.15;;;18.10;;
54384;SDS011;40284;52.878;5.998;2024-01-30T08:51:41;25.20;;;17.35;;
54384;SDS011;40284;52.878;5.998;2024-01-30T08:54:08;29.80;;;19.77;;
54384;SDS011;40284;52.878;5.998;2024-01-30T08:56:34;30.73;;;19.95;;
54384;SDS011;40284;52.878;5.998;2024-01-30T08:59:00;28.25;;;16.95;;
54384;SDS011;40284;52.878;5.998;2024-01-30T09:01:26;25.20;;;16.98;;
54384;SDS011;40284;52.878;5.998;2024-01-30T09:03:52;22.63;;;16.35;;
54384;SDS011;40284;52.878;5.998;2024-01-30T09:06:18;22.40;;;14.65;;
54384;SDS011;40284;52.878;5.998;2024-01-30T09:08:45;19.98;;;14.82;;
54384;SDS011;40284;52.878;5.998;2024-01-30T09:11:11;19.13;;;14.02;;
54384;SDS011;40284;52.878;5.998;2024-01-30T09:13:38;18.70;;;12.98;;
54384;SDS011;40284;52.878;5.998;2024-01-30T09:16:04;18.40;;;13.38;;
54384;SDS011;40284;52.878;5.998;2024-01-30T09:18:30;18.80;;;13.27;;
54384;SDS011;40284;52.878;5.998;2024-01-30T09:20:56;23.05;;;13.77;;
54384;SDS011;40284;52.878;5.998;2024-01-30T09:23:23;21.23;;;13.65;;
54384;SDS011;40284;52.878;5.998;2024-01-30T09:25:49;29.45;;;14.20;;
54384;SDS011;40284;52.878;5.998;2024-01-30T09:28:17;22.10;;;12.75;;
54384;SDS011;40284;52.878;5.998;2024-01-30T09:30:43;26.35;;;14.18;;
54384;SDS011;40284;52.878;5.998;2024-01-30T09:33:09;21.60;;;13.82;;
54384;SDS011;40284;52.878;5.998;2024-01-30T09:35:38;20.35;;;14.50;;
54384;SDS011;40284;52.878;5.998;2024-01-30T09:38:04;16.02;;;12.73;;
54384;SDS011;40284;52.878;5.998;2024-01-30T09:40:30;18.08;;;13.07;;
54384;SDS011;40284;52.878;5.998;2024-01-30T09:42:56;19.15;;;12.05;;
54384;SDS011;40284;52.878;5.998;2024-01-30T09:45:27;18.05;;;12.25;;
54384;SDS011;40284;52.878;5.998;2024-01-30T09:47:53;23.35;;;12.93;;
54384;SDS011;40284;52.878;5.998;2024-01-30T09:50:19;19.23;;;11.68;;
54384;SDS011;40284;52.878;5.998;2024-01-30T09:52:46;21.52;;;12.88;;
54384;SDS011;40284;52.878;5.998;2024-01-30T09:55:13;19.63;;;12.40;;
54384;SDS011;40284;52.878;5.998;2024-01-30T09:57:39;22.73;;;13.45;;
54384;SDS011;40284;52.878;5.998;2024-01-30T10:00:05;21.45;;;13.75;;
54384;SDS011;40284;52.878;5.998;2024-01-30T10:02:35;26.20;;;15.57;;
54384;SDS011;40284;52.878;5.998;2024-01-30T10:05:01;30.55;;;17.58;;
54384;SDS011;40284;52.878;5.998;2024-01-30T10:07:28;31.83;;;18.27;;
54384;SDS011;40284;52.878;5.998;2024-01-30T10:09:55;32.00;;;19.88;;
54384;SDS011;40284;52.878;5.998;2024-01-30T10:12:22;35.00;;;21.08;;
54384;SDS011;40284;52.878;5.998;2024-01-30T10:14:48;37.08;;;23.27;;
54384;SDS011;40284;52.878;5.998;2024-01-30T10:17:14;35.65;;;21.52;;
54384;SDS011;40284;52.878;5.998;2024-01-30T10:19:41;34.58;;;19.80;;
54384;SDS011;40284;52.878;5.998;2024-01-30T10:22:07;26.73;;;16.80;;
54384;SDS011;40284;52.878;5.998;2024-01-30T10:24:34;25.05;;;14.50;;
54384;SDS011;40284;52.878;5.998;2024-01-30T10:27:00;23.73;;;13.15;;
54384;SDS011;40284;52.878;5.998;2024-01-30T10:29:26;20.00;;;13.88;;
54384;SDS011;40284;52.878;5.998;2024-01-30T10:32:00;24.08;;;13.50;;
54384;SDS011;40284;52.878;5.998;2024-01-30T10:34:26;21.80;;;14.57;;
54384;SDS011;40284;52.878;5.998;2024-01-30T10:37:06;24.42;;;14.15;;
54384;SDS011;40284;52.878;5.998;2024-01-30T10:39:37;20.80;;;14.75;;
54384;SDS011;40284;52.878;5.998;2024-01-30T10:42:04;17.85;;;13.38;;
54384;SDS011;40284;52.878;5.998;2024-01-30T10:44:38;20.70;;;13.88;;
54384;SDS011;40284;52.878;5.998;2024-01-30T10:47:06;17.20;;;13.00;;
54384;SDS011;40284;52.878;5.998;2024-01-30T10:49:33;20.30;;;13.15;;
54384;SDS011;40284;52.878;5.998;2024-01-30T10:51:59;18.00;;;13.30;;
54384;SDS011;40284;52.878;5.998;2024-01-30T10:54:26;20.25;;;12.95;;
54384;SDS011;40284;52.878;5.998;2024-01-30T10:56:52;20.27;;;12.27;;
54384;SDS011;40284;52.878;5.998;2024-01-30T10:59:18;25.90;;;12.77;;
54384;SDS011;40284;52.878;5.998;2024-01-30T11:01:45;18.08;;;9.57;;
54384;SDS011;40284;52.878;5.998;2024-01-30T11:04:11;19.98;;;8.43;;
54384;SDS011;40284;52.878;5.998;2024-01-30T11:06:41;25.65;;;8.55;;
54384;SDS011;40284;52.878;5.998;2024-01-30T11:09:10;25.60;;;8.25;;
54384;SDS011;40284;52.878;5.998;2024-01-30T11:14:16;26.65;;;7.60;;
54384;SDS011;40284;52.878;5.998;2024-01-30T11:16:42;18.20;;;6.00;;
54384;SDS011;40284;52.878;5.998;2024-01-30T11:19:11;16.05;;;5.85;;
54384;SDS011;40284;52.878;5.998;2024-01-30T11:21:43;15.80;;;5.55;;
54384;SDS011;40284;52.878;5.998;2024-01-30T11:24:09;16.17;;;5.57;;
54384;SDS011;40284;52.878;5.998;2024-01-30T11:26:36;13.43;;;4.95;;
54384;SDS011;40284;52.878;5.998;2024-01-30T11:29:07;14.82;;;4.50;;
54384;SDS011;40284;52.878;5.998;2024-01-30T11:31:34;16.90;;;4.25;;
54384;SDS011;40284;52.878;5.998;2024-01-30T11:34:00;14.93;;;4.50;;
54384;SDS011;40284;52.878;5.998;2024-01-30T11:36:27;7.97;;;3.47;;
54384;SDS011;40284;52.878;5.998;2024-01-30T11:38:54;10.68;;;3.70;;
54384;SDS011;40284;52.878;5.998;2024-01-30T11:41:20;13.65;;;3.17;;
54384;SDS011;40284;52.878;5.998;2024-01-30T11:43:52;8.35;;;2.67;;
54384;SDS011;40284;52.878;5.998;2024-01-30T11:46:19;8.57;;;2.92;;
54384;SDS011;40284;52.878;5.998;2024-01-30T11:48:45;9.15;;;2.50;;
54384;SDS011;40284;52.878;5.998;2024-01-30T11:51:12;9.20;;;1.98;;
54384;SDS011;40284;52.878;5.998;2024-01-30T11:53:38;7.22;;;1.65;;
54384;SDS011;40284;52.878;5.998;2024-01-30T11:56:07;5.07;;;1.90;;
54384;SDS011;40284;52.878;5.998;2024-01-30T11:58:33;4.50;;;1.67;;
54384;SDS011;40284;52.878;5.998;2024-01-30T12:00:59;4.22;;;1.40;;
54384;SDS011;40284;52.878;5.998;2024-01-30T12:03:25;2.53;;;1.08;;
54384;SDS011;40284;52.878;5.998;2024-01-30T12:05:55;5.88;;;1.30;;
54384;SDS011;40284;52.878;5.998;2024-01-30T12:08:22;4.38;;;1.48;;
54384;SDS011;40284;52.878;5.998;2024-01-30T12:10:55;7.35;;;1.75;;
54384;SDS011;40284;52.878;5.998;2024-01-30T12:15:47;4.28;;;1.42;;
54384;SDS011;40284;52.878;5.998;2024-01-30T12:18:14;4.05;;;1.52;;
54384;SDS011;40284;52.878;5.998;2024-01-30T12:20:40;6.40;;;1.90;;
54384;SDS011;40284;52.878;5.998;2024-01-30T12:23:06;4.05;;;1.73;;
54384;SDS011;40284;52.878;5.998;2024-01-30T12:25:32;7.55;;;3.63;;
54384;SDS011;40284;52.878;5.998;2024-01-30T12:27:58;27.65;;;11.70;;
54384;SDS011;40284;52.878;5.998;2024-01-30T12:30:24;31.67;;;14.25;;
54384;SDS011;40284;52.878;5.998;2024-01-30T12:32:50;28.92;;;12.18;;
54384;SDS011;40284;52.878;5.998;2024-01-30T12:35:17;16.05;;;6.85;;
54384;SDS011;40284;52.878;5.998;2024-01-30T12:37:43;10.02;;;4.40;;
54384;SDS011;40284;52.878;5.998;2024-01-30T12:40:10;11.68;;;4.47;;
54384;SDS011;40284;52.878;5.998;2024-01-30T12:42:38;9.32;;;4.78;;
54384;SDS011;40284;52.878;5.998;2024-01-30T12:45:04;14.98;;;5.70;;
54384;SDS011;40284;52.878;5.998;2024-01-30T12:47:31;10.30;;;4.00;;
54384;SDS011;40284;52.878;5.998;2024-01-30T12:49:57;6.30;;;1.83;;
54384;SDS011;40284;52.878;5.998;2024-01-30T12:52:24;2.97;;;0.90;;
54384;SDS011;40284;52.878;5.998;2024-01-30T12:54:50;5.85;;;0.90;;
54384;SDS011;40284;52.878;5.998;2024-01-30T12:57:16;4.60;;;1.20;;
54384;SDS011;40284;52.878;5.998;2024-01-30T12:59:43;3.03;;;1.27;;
54384;SDS011;40284;52.878;5.998;2024-01-30T13:02:09;3.13;;;0.90;;
54384;SDS011;40284;52.878;5.998;2024-01-30T13:04:36;3.20;;;0.90;;
54384;SDS011;40284;52.878;5.998;2024-01-30T13:07:02;3.20;;;1.10;;
54384;SDS011;40284;52.878;5.998;2024-01-30T13:09:29;3.20;;;1.00;;
54384;SDS011;40284;52.878;5.998;2024-01-30T13:11:55;3.25;;;1.02;;
54384;SDS011;40284;52.878;5.998;2024-01-30T13:14:21;2.78;;;0.98;;
54384;SDS011;40284;52.878;5.998;2024-01-30T13:16:47;2.03;;;0.80;;
54384;SDS011;40284;52.878;5.998;2024-01-30T13:19:13;4.57;;;0.82;;
54384;SDS011;40284;52.878;5.998;2024-01-30T13:21:40;2.45;;;0.93;;
54384;SDS011;40284;52.878;5.998;2024-01-30T13:24:06;2.03;;;1.10;;
54384;SDS011;40284;52.878;5.998;2024-01-30T13:26:32;4.88;;;1.20;;
54384;SDS011;40284;52.878;5.998;2024-01-30T13:28:58;4.50;;;1.08;;
54384;SDS011;40284;52.878;5.998;2024-01-30T13:31:24;2.90;;;1.30;;
54384;SDS011;40284;52.878;5.998;2024-01-30T13:33:52;6.38;;;1.45;;
54384;SDS011;40284;52.878;5.998;2024-01-30T13:36:18;6.90;;;1.50;;
54384;SDS011;40284;52.878;5.998;2024-01-30T13:38:44;10.63;;;2.22;;
54384;SDS011;40284;52.878;5.998;2024-01-30T13:41:11;6.63;;;1.33;;
54384;SDS011;40284;52.878;5.998;2024-01-30T13:43:37;6.15;;;1.80;;
54384;SDS011;40284;52.878;5.998;2024-01-30T13:46:03;6.15;;;1.75;;
54384;SDS011;40284;52.878;5.998;2024-01-30T13:48:30;6.85;;;1.70;;
54384;SDS011;40284;52.878;5.998;2024-01-30T13:50:57;5.13;;;2.08;;
54384;SDS011;40284;52.878;5.998;2024-01-30T13:53:23;5.18;;;1.50;;
54384;SDS011;40284;52.878;5.998;2024-01-30T13:55:49;4.28;;;1.60;;
54384;SDS011;40284;52.878;5.998;2024-01-30T13:58:15;9.02;;;1.85;;
54384;SDS011;40284;52.878;5.998;2024-01-30T14:00:41;9.18;;;2.60;;
54384;SDS011;40284;52.878;5.998;2024-01-30T14:03:07;6.32;;;2.10;;
54384;SDS011;40284;52.878;5.998;2024-01-30T14:05:33;5.05;;;2.25;;
54384;SDS011;40284;52.878;5.998;2024-01-30T14:08:00;6.40;;;2.30;;
54384;SDS011;40284;52.878;5.998;2024-01-30T14:10:26;8.75;;;2.80;;
54384;SDS011;40284;52.878;5.998;2024-01-30T14:12:52;10.02;;;3.08;;
54384;SDS011;40284;52.878;5.998;2024-01-30T14:15:18;9.70;;;3.13;;
54384;SDS011;40284;52.878;5.998;2024-01-30T14:17:45;7.43;;;2.40;;
54384;SDS011;40284;52.878;5.998;2024-01-30T14:20:13;9.90;;;3.83;;
54384;SDS011;40284;52.878;5.998;2024-01-30T14:22:41;8.07;;;3.13;;
54384;SDS011;40284;52.878;5.998;2024-01-30T14:25:08;6.82;;;3.00;;
54384;SDS011;40284;52.878;5.998;2024-01-30T14:27:35;8.23;;;3.17;;